createdAt,value
2023-04-03T00:00:52.596Z,3.20
2023-04-03T00:03:21.954Z,3.10
2023-04-03T00:05:50.567Z,3.00
2023-04-03T00:08:19.041Z,2.90
2023-04-03T00:10:47.168Z,2.75
2023-04-03T00:13:15.605Z,3.05
2023-04-03T00:15:43.770Z,3.13
2023-04-03T00:18:13.003Z,4.70
2023-04-03T00:20:41.337Z,4.63
2023-04-03T00:23:09.316Z,4.15
2023-04-03T00:25:37.741Z,4.47
2023-04-03T00:28:06.447Z,4.50
2023-04-03T00:30:35.159Z,4.63
2023-04-03T00:33:03.645Z,3.85
2023-04-03T00:35:32.919Z,4.00
2023-04-03T00:38:01.257Z,4.20
2023-04-03T00:40:29.815Z,4.43
2023-04-03T00:43:00.202Z,3.70
2023-04-03T00:45:36.772Z,3.75
2023-04-03T00:48:07.774Z,4.05
2023-04-03T00:50:40.575Z,3.72
2023-04-03T00:53:11.404Z,3.70
2023-04-03T00:55:40.145Z,3.70
2023-04-03T00:58:08.986Z,3.53
2023-04-03T01:00:39.613Z,3.92
2023-04-03T01:03:07.695Z,3.30
2023-04-03T01:05:37.201Z,4.07
2023-04-03T01:08:06.593Z,3.80
2023-04-03T01:10:34.855Z,4.00
2023-04-03T01:13:03.193Z,3.35
2023-04-03T01:15:36.015Z,3.72
2023-04-03T01:18:05.800Z,3.92
2023-04-03T01:21:24.813Z,3.78
2023-04-03T01:24:13.914Z,3.90
2023-04-03T01:26:41.889Z,3.90
2023-04-03T01:29:10.095Z,3.80
2023-04-03T01:31:50.512Z,3.80
2023-04-03T01:34:18.737Z,3.90
2023-04-03T01:36:46.712Z,3.90
2023-04-03T01:39:15.183Z,3.97
2023-04-03T01:41:43.262Z,4.32
2023-04-03T01:44:11.708Z,4.03
2023-04-03T01:46:39.874Z,4.13
2023-04-03T01:49:09.159Z,3.70
2023-04-03T01:51:37.016Z,3.67
2023-04-03T01:54:04.985Z,3.72
2023-04-03T01:56:33.232Z,3.42
2023-04-03T01:59:01.182Z,3.83
2023-04-03T02:01:29.111Z,3.70
2023-04-03T02:03:57.184Z,3.65
2023-04-03T02:06:27.342Z,3.53
2023-04-03T02:08:55.470Z,3.75
2023-04-03T02:11:27.278Z,3.70
2023-04-03T02:13:55.390Z,3.30
2023-04-03T02:16:23.414Z,4.13
2023-04-03T02:18:52.096Z,3.97
2023-04-03T02:21:19.996Z,4.03
2023-04-03T02:23:49.157Z,3.53
2023-04-03T02:26:20.206Z,3.60
2023-04-03T02:28:48.166Z,4.20
2023-04-03T02:31:16.236Z,3.75
2023-04-03T02:33:44.122Z,3.40
2023-04-03T02:36:12.349Z,3.67
2023-04-03T02:38:40.358Z,3.60
2023-04-03T02:41:11.563Z,3.33
2023-04-03T02:43:39.672Z,3.30
2023-04-03T02:46:08.142Z,3.50
2023-04-03T02:48:36.265Z,3.45
2023-04-03T02:51:04.227Z,3.13
2023-04-03T02:53:32.037Z,3.25
2023-04-03T02:56:01.996Z,3.80
2023-04-03T02:58:31.276Z,4.37
2023-04-03T03:00:59.045Z,3.23
2023-04-03T03:03:26.933Z,3.80
2023-04-03T03:06:04.628Z,3.58
2023-04-03T03:08:32.754Z,3.93
2023-04-03T03:11:00.699Z,3.65
2023-04-03T03:13:28.766Z,3.50
2023-04-03T03:15:58.389Z,3.80
2023-04-03T03:18:26.510Z,3.40
2023-04-03T03:20:54.908Z,3.50
2023-04-03T03:23:24.546Z,3.70
2023-04-03T03:25:57.594Z,3.63
2023-04-03T03:28:25.674Z,3.17
2023-04-03T03:30:53.474Z,3.42
2023-04-03T03:33:22.881Z,3.42
2023-04-03T03:35:50.880Z,3.20
2023-04-03T03:38:18.873Z,3.50
2023-04-03T03:40:47.062Z,3.30
2023-04-03T03:43:15.060Z,3.47
2023-04-03T03:45:43.028Z,3.60
2023-04-03T03:48:11.156Z,3.80
2023-04-03T03:50:40.461Z,3.47
2023-04-03T03:53:08.358Z,3.40
2023-04-03T03:55:36.542Z,3.67
2023-04-03T03:58:04.562Z,3.50
2023-04-03T04:00:32.650Z,3.90
2023-04-03T04:03:01.955Z,3.78
2023-04-03T04:05:30.095Z,3.10
2023-04-03T04:07:59.811Z,3.20
2023-04-03T04:10:28.043Z,3.80
2023-04-03T04:12:57.455Z,3.63
2023-04-03T04:15:28.045Z,3.50
2023-04-03T04:17:56.153Z,3.13
2023-04-03T04:20:24.509Z,3.65
2023-04-03T04:22:52.480Z,3.53
2023-04-03T04:25:21.940Z,3.73
2023-04-03T04:27:49.911Z,4.13
2023-04-03T04:30:22.071Z,4.43
2023-04-03T04:32:50.075Z,3.93
2023-04-03T04:35:18.233Z,3.50
2023-04-03T04:37:46.281Z,3.70
2023-04-03T04:40:14.244Z,3.57
2023-04-03T04:42:46.311Z,3.70
2023-04-03T04:45:14.390Z,4.07
2023-04-03T04:47:42.471Z,5.83
2023-04-03T04:50:11.649Z,5.15
2023-04-03T04:52:39.664Z,3.97
2023-04-03T04:55:08.357Z,4.20
2023-04-03T04:57:36.707Z,4.30
2023-04-03T05:00:07.737Z,3.80
2023-04-03T05:02:35.702Z,6.22
2023-04-03T05:05:05.111Z,6.05
2023-04-03T05:07:33.416Z,5.65
2023-04-03T05:10:01.320Z,3.85
2023-04-03T05:12:29.312Z,2.92
2023-04-03T05:14:57.342Z,3.60
2023-04-03T05:17:26.789Z,2.83
2023-04-03T05:19:54.686Z,3.40
2023-04-03T05:22:22.522Z,2.80
2023-04-03T05:24:50.630Z,3.10
2023-04-03T05:27:18.939Z,3.58
2023-04-03T05:29:47.188Z,3.10
2023-04-03T05:32:14.920Z,3.15
2023-04-03T05:34:44.443Z,3.10
2023-04-03T05:37:12.280Z,3.08
2023-04-03T05:39:41.607Z,3.33
2023-04-03T05:42:09.961Z,3.03
2023-04-03T05:44:37.760Z,3.53
2023-04-03T05:47:05.813Z,3.45
2023-04-03T05:49:33.624Z,3.30
2023-04-03T05:52:03.144Z,3.35
2023-04-03T05:54:32.097Z,3.22
2023-04-03T05:57:00.193Z,3.80
2023-04-03T05:59:28.355Z,3.28
2023-04-03T06:01:56.633Z,3.08
2023-04-03T06:04:24.714Z,2.83
2023-04-03T06:06:54.229Z,3.05
2023-04-03T06:09:26.467Z,3.08
2023-04-03T06:11:54.873Z,2.70
2023-04-03T06:14:22.747Z,2.97
2023-04-03T06:16:50.631Z,2.70
2023-04-03T06:19:18.481Z,2.45
2023-04-03T06:21:46.380Z,3.08
2023-04-03T06:24:17.701Z,2.97
2023-04-03T06:26:47.373Z,2.55
2023-04-03T06:29:15.252Z,2.70
2023-04-03T06:31:43.161Z,2.80
2023-04-03T06:34:12.098Z,2.50
2023-04-03T06:36:40.194Z,4.40
2023-04-03T06:39:08.700Z,2.70
2023-04-03T06:41:37.231Z,2.67
2023-04-03T06:44:07.280Z,2.50
2023-04-03T06:46:35.275Z,2.78
2023-04-03T06:49:03.243Z,2.10
2023-04-03T06:51:31.921Z,2.50
2023-04-03T06:54:00.773Z,2.38
2023-04-03T06:56:29.730Z,3.50
2023-04-03T06:58:58.818Z,2.80
2023-04-03T07:01:31.933Z,2.60
2023-04-03T07:03:59.914Z,2.65
2023-04-03T07:06:28.918Z,2.22
2023-04-03T07:08:57.718Z,2.50
2023-04-03T07:11:26.017Z,2.47
2023-04-03T07:13:54.279Z,2.33
2023-04-03T07:16:22.346Z,2.42
2023-04-03T07:18:52.013Z,2.30
2023-04-03T07:21:20.063Z,2.72
2023-04-03T07:26:23.345Z,1.90
2023-04-03T07:28:51.776Z,2.10
2023-04-03T07:31:19.675Z,2.60
2023-04-03T07:33:53.205Z,2.47
2023-04-03T07:36:23.656Z,2.28
2023-04-03T07:38:51.594Z,2.40
2023-04-03T07:41:23.595Z,1.80
2023-04-03T07:43:51.875Z,1.85
2023-04-03T07:46:19.777Z,2.08
2023-04-03T07:48:47.811Z,2.05
2023-04-03T07:51:17.283Z,2.30
2023-04-03T07:53:45.135Z,2.10
2023-04-03T07:56:12.971Z,2.00
2023-04-03T07:58:40.906Z,1.92
2023-04-03T08:01:09.236Z,2.30
2023-04-03T08:03:38.424Z,2.30
2023-04-03T08:06:11.949Z,1.75
2023-04-03T08:08:45.030Z,2.20
2023-04-03T08:11:13.482Z,2.05
2023-04-03T08:13:42.536Z,1.80
2023-04-03T08:16:12.796Z,2.22
2023-04-03T08:18:41.220Z,2.67
2023-04-03T08:21:09.785Z,2.15
2023-04-03T08:23:37.677Z,1.92
2023-04-03T08:26:11.778Z,2.35
2023-04-03T08:28:40.119Z,1.77
2023-04-03T08:31:11.994Z,2.03
2023-04-03T08:33:40.402Z,2.08
2023-04-03T08:36:10.715Z,1.70
2023-04-03T08:38:38.618Z,1.95
2023-04-03T08:41:16.410Z,1.95
2023-04-03T08:43:57.162Z,1.88
2023-04-03T08:46:33.316Z,1.60
2023-04-03T08:49:01.844Z,2.42
2023-04-03T08:51:31.317Z,1.63
2023-04-03T08:54:03.330Z,1.95
2023-04-03T08:56:35.421Z,1.75
2023-04-03T08:59:08.235Z,2.10
2023-04-03T09:01:38.685Z,1.80
2023-04-03T09:04:15.038Z,3.05
2023-04-03T09:06:47.209Z,2.58
2023-04-03T09:09:18.008Z,3.53
2023-04-03T09:11:58.791Z,1.70
2023-04-03T09:14:35.297Z,2.17
2023-04-03T09:17:06.903Z,2.88
2023-04-03T09:19:42.958Z,4.55
2023-04-03T09:22:18.731Z,3.83
2023-04-03T09:24:49.214Z,2.60
2023-04-03T09:27:18.639Z,1.63
2023-04-03T09:29:47.236Z,1.50
2023-04-03T09:32:23.703Z,1.80
2023-04-03T09:34:53.143Z,1.70
2023-04-03T09:37:43.800Z,1.70
2023-04-03T09:40:33.384Z,1.65
2023-04-03T09:43:04.773Z,1.90
2023-04-03T09:45:34.574Z,1.80
2023-04-03T09:48:16.694Z,1.60
2023-04-03T09:50:59.432Z,1.98
2023-04-03T09:53:34.037Z,1.67
2023-04-03T09:56:04.351Z,1.80
2023-04-03T09:58:46.945Z,1.63
2023-04-03T10:01:31.027Z,1.70
2023-04-03T10:04:08.663Z,1.52
2023-04-03T10:06:41.606Z,1.40
2023-04-03T10:09:20.376Z,1.50
2023-04-03T10:12:05.701Z,1.50
2023-04-03T10:14:36.397Z,1.58
2023-04-03T10:17:17.485Z,1.92
2023-04-03T10:19:50.019Z,1.27
2023-04-03T10:22:33.523Z,1.38
2023-04-03T10:25:07.032Z,1.33
2023-04-03T10:27:44.124Z,1.20
2023-04-03T10:30:25.143Z,1.25
2023-04-03T10:33:05.643Z,1.30
2023-04-03T10:35:44.366Z,1.10
2023-04-03T10:38:22.079Z,1.33
2023-04-03T10:40:58.354Z,1.30
2023-04-03T10:43:34.180Z,1.10
2023-04-03T10:46:08.998Z,1.27
2023-04-03T10:48:46.927Z,1.13
2023-04-03T10:51:24.457Z,1.30
2023-04-03T10:53:58.221Z,1.67
2023-04-03T10:56:33.614Z,1.23
2023-04-03T10:59:09.276Z,1.30
2023-04-03T11:01:42.704Z,1.38
2023-04-03T11:04:13.261Z,1.40
2023-04-03T11:06:46.653Z,1.05
2023-04-03T11:09:23.424Z,1.20
2023-04-03T11:11:55.218Z,1.02
2023-04-03T11:14:29.399Z,1.17
2023-04-03T11:17:13.123Z,1.30
2023-04-03T11:19:47.540Z,1.20
2023-04-03T11:22:23.718Z,1.30
2023-04-03T11:24:59.992Z,1.27
2023-04-03T11:27:40.907Z,0.95
2023-04-03T11:30:18.848Z,0.80
2023-04-03T11:33:27.525Z,1.00
2023-04-03T11:36:00.079Z,1.20
2023-04-03T11:38:35.856Z,0.90
2023-04-03T11:41:05.038Z,0.60
2023-04-03T11:43:34.422Z,0.88
2023-04-03T11:46:04.078Z,1.10
2023-04-03T11:48:49.308Z,0.82
2023-04-03T11:51:42.570Z,0.98
2023-04-03T11:54:46.191Z,1.38
2023-04-03T11:57:57.076Z,1.10
2023-04-03T12:00:59.932Z,1.20
2023-04-03T12:04:07.311Z,1.00
2023-04-03T12:07:11.122Z,0.80
2023-04-03T12:10:31.638Z,0.98
2023-04-03T12:13:05.107Z,1.58
2023-04-03T12:15:52.369Z,2.35
2023-04-03T12:18:57.671Z,2.10
2023-04-03T12:22:08.254Z,1.05
2023-04-03T12:24:37.634Z,0.93
2023-04-03T12:27:19.634Z,1.10
2023-04-03T12:29:52.541Z,1.23
2023-04-03T12:32:37.431Z,1.00
2023-04-03T12:35:19.122Z,0.80
2023-04-03T12:38:25.234Z,1.27
2023-04-03T12:40:59.276Z,1.08
2023-04-03T12:43:43.077Z,1.45
2023-04-03T12:46:17.872Z,1.00
2023-04-03T12:48:52.035Z,0.88
2023-04-03T12:51:24.023Z,2.00
2023-04-03T12:53:59.147Z,1.00
2023-04-03T12:56:28.673Z,1.67
2023-04-03T12:59:14.388Z,2.95
2023-04-03T13:01:42.314Z,2.70
2023-04-03T13:04:13.645Z,1.75
2023-04-03T13:06:43.817Z,3.22
2023-04-03T13:09:23.783Z,7.80
2023-04-03T13:11:53.658Z,4.85
2023-04-03T13:14:24.081Z,1.25
2023-04-03T13:16:56.652Z,6.45
2023-04-03T13:19:28.410Z,6.85
2023-04-03T13:22:01.541Z,2.65
2023-04-03T13:24:32.659Z,0.95
2023-04-03T13:27:01.059Z,1.10
2023-04-03T13:29:32.093Z,1.00
2023-04-03T13:32:01.438Z,3.08
2023-04-03T13:34:32.656Z,1.10
2023-04-03T13:37:02.280Z,1.90
2023-04-03T13:39:33.375Z,0.93
2023-04-03T13:44:49.305Z,1.65
2023-04-03T13:47:20.555Z,2.40
2023-04-03T13:50:02.146Z,1.15
2023-04-03T13:52:33.565Z,1.20
2023-04-03T13:55:07.916Z,0.98
2023-04-03T13:57:37.957Z,0.98
2023-04-03T14:00:36.234Z,1.60
2023-04-03T14:03:04.091Z,6.30
2023-04-03T14:05:32.134Z,1.50
2023-04-03T14:08:02.144Z,1.35
2023-04-03T14:10:34.016Z,0.80
2023-04-03T14:13:02.658Z,1.00
2023-04-03T14:15:32.923Z,1.00
2023-04-03T14:18:03.896Z,1.05
2023-04-03T14:20:32.876Z,1.00
2023-04-03T14:23:00.635Z,0.80
2023-04-03T14:25:28.725Z,1.13
2023-04-03T14:27:58.688Z,1.20
2023-04-03T14:30:29.261Z,1.77
2023-04-03T14:32:57.271Z,1.20
2023-04-03T14:35:26.074Z,1.00
2023-04-03T14:37:55.104Z,1.00
2023-04-03T14:40:25.711Z,1.08
2023-04-03T14:42:56.109Z,1.45
2023-04-03T14:45:26.384Z,1.10
2023-04-03T14:47:56.841Z,1.00
2023-04-03T14:50:26.644Z,2.08
2023-04-03T14:52:56.969Z,1.90
2023-04-03T14:55:26.557Z,1.20
2023-04-03T14:57:55.019Z,5.18
2023-04-03T15:00:25.148Z,2.33
2023-04-03T15:02:53.490Z,1.10
2023-04-03T15:05:21.677Z,0.82
2023-04-03T15:07:54.169Z,1.08
2023-04-03T15:10:24.617Z,1.00
2023-04-03T15:12:53.455Z,1.00
2023-04-03T15:15:23.072Z,0.95
2023-04-03T15:17:54.832Z,0.88
2023-04-03T15:20:25.641Z,1.10
2023-04-03T15:22:53.460Z,1.27
2023-04-03T15:25:21.323Z,1.00
2023-04-03T15:27:49.194Z,1.85
2023-04-03T15:30:19.759Z,1.27
2023-04-03T15:32:48.365Z,0.90
2023-04-03T15:35:17.873Z,1.10
2023-04-03T15:37:45.717Z,1.30
2023-04-03T15:40:13.632Z,1.45
2023-04-03T15:42:42.027Z,1.40
2023-04-03T15:45:10.788Z,1.30
2023-04-03T15:47:38.920Z,1.20
2023-04-03T15:50:08.796Z,1.27
2023-04-03T15:52:38.545Z,1.88
2023-04-03T15:55:08.068Z,1.60
2023-04-03T16:00:10.268Z,1.27
2023-04-03T16:02:38.168Z,1.38
2023-04-03T16:05:06.885Z,1.58
2023-04-03T16:07:34.841Z,1.90
2023-04-03T16:10:04.090Z,4.88
2023-04-03T16:12:31.817Z,1.70
2023-04-03T16:14:59.717Z,1.95
2023-04-03T16:17:28.836Z,1.80
2023-04-03T16:19:57.087Z,1.65
2023-04-03T16:22:29.643Z,2.40
2023-04-03T16:24:57.420Z,2.78
2023-04-03T16:27:28.534Z,1.55
2023-04-03T16:29:57.141Z,1.40
2023-04-03T16:32:25.754Z,1.90
2023-04-03T16:34:53.837Z,2.00
2023-04-03T16:37:21.705Z,2.63
2023-04-03T16:39:49.600Z,2.28
2023-04-03T16:42:17.439Z,2.33
2023-04-03T16:44:48.126Z,2.15
2023-04-03T16:47:19.978Z,2.72
2023-04-03T16:49:48.786Z,1.80
2023-04-03T16:52:16.793Z,2.53
2023-04-03T16:54:44.527Z,1.92
2023-04-03T16:57:12.312Z,2.10
2023-04-03T16:59:40.075Z,2.83
2023-04-03T17:02:09.219Z,1.70
2023-04-03T17:04:37.371Z,1.80
2023-04-03T17:07:07.104Z,2.40
2023-04-03T17:09:35.570Z,1.60
2023-04-03T17:12:03.714Z,1.70
2023-04-03T17:14:31.494Z,1.90
2023-04-03T17:16:59.342Z,2.25
2023-04-03T17:19:30.079Z,2.30
2023-04-03T17:21:58.095Z,1.83
2023-04-03T17:24:26.108Z,3.95
2023-04-03T17:26:53.903Z,2.83
2023-04-03T17:29:21.664Z,6.90
2023-04-03T17:31:49.474Z,4.57
2023-04-03T17:34:17.376Z,3.97
2023-04-03T17:36:46.548Z,3.53
2023-04-03T17:39:14.925Z,7.75
2023-04-03T17:41:42.858Z,9.98
2023-04-03T17:44:10.786Z,9.52
2023-04-03T17:46:38.941Z,5.05
2023-04-03T17:49:07.616Z,7.45
2023-04-03T17:51:36.584Z,8.73
2023-04-03T17:54:05.748Z,10.32
2023-04-03T17:56:33.601Z,8.25
2023-04-03T17:59:01.834Z,9.32
2023-04-03T18:01:31.770Z,5.03
2023-04-03T18:04:01.143Z,3.30
2023-04-03T18:06:31.876Z,4.03
2023-04-03T18:09:04.829Z,4.18
2023-04-03T18:11:35.384Z,8.77
2023-04-03T18:14:07.524Z,5.18
2023-04-03T18:16:35.684Z,6.50
2023-04-03T18:19:21.376Z,3.72
2023-04-03T18:21:52.237Z,8.30
2023-04-03T18:24:21.462Z,4.63
2023-04-03T18:26:54.979Z,4.53
2023-04-03T18:29:23.236Z,4.18
2023-04-03T18:31:54.358Z,4.00
2023-04-03T18:34:22.225Z,3.40
2023-04-03T18:36:50.144Z,3.75
2023-04-03T18:39:17.969Z,4.32
2023-04-03T18:41:46.434Z,3.70
2023-04-03T18:44:19.911Z,4.53
2023-04-03T18:46:48.410Z,6.38
2023-04-03T18:49:18.133Z,8.23
2023-04-03T18:51:46.295Z,5.03
2023-04-03T18:54:18.015Z,3.83
2023-04-03T18:56:45.939Z,3.70
2023-04-03T18:59:15.514Z,4.32
2023-04-03T19:01:43.973Z,4.40
2023-04-03T19:04:11.848Z,5.00
2023-04-03T19:06:39.681Z,6.68
2023-04-03T19:09:09.006Z,6.80
2023-04-03T19:11:37.558Z,7.50
2023-04-03T19:14:16.161Z,10.02
2023-04-03T19:16:46.716Z,10.50
2023-04-03T19:19:14.688Z,9.98
2023-04-03T19:21:42.489Z,11.23
2023-04-03T19:24:11.150Z,10.77
2023-04-03T19:26:39.321Z,9.98
2023-04-03T19:29:07.114Z,10.07
2023-04-03T19:31:36.802Z,13.80
2023-04-03T19:34:07.418Z,12.57
2023-04-03T19:36:36.066Z,14.05
2023-04-03T19:39:05.054Z,11.30
2023-04-03T19:41:35.278Z,9.57
2023-04-03T19:44:04.864Z,8.45
2023-04-03T19:46:32.949Z,10.70
2023-04-03T19:49:01.132Z,9.18
2023-04-03T19:51:30.759Z,10.38
2023-04-03T19:53:58.646Z,10.30
2023-04-03T19:56:27.897Z,7.78
2023-04-03T19:58:55.847Z,6.00
2023-04-03T20:01:26.875Z,8.32
2023-04-03T20:03:54.969Z,8.63
2023-04-03T20:06:22.972Z,4.80
2023-04-03T20:08:52.227Z,4.88
2023-04-03T20:11:20.164Z,4.65
2023-04-03T20:13:50.462Z,5.25
2023-04-03T20:16:18.837Z,5.68
2023-04-03T20:18:47.590Z,4.60
2023-04-03T20:21:18.785Z,4.95
2023-04-03T20:23:46.868Z,5.35
2023-04-03T20:26:24.561Z,4.78
2023-04-03T20:28:53.327Z,4.88
2023-04-03T20:31:24.062Z,3.95
2023-04-03T20:33:52.110Z,4.78
2023-04-03T20:36:21.736Z,4.90
2023-04-03T20:38:50.099Z,5.03
2023-04-03T20:41:18.776Z,5.25
2023-04-03T20:43:48.304Z,7.07
2023-04-03T20:46:20.313Z,5.13
2023-04-03T20:48:48.921Z,4.57
2023-04-03T20:51:19.457Z,4.72
2023-04-03T20:53:47.712Z,4.85
2023-04-03T20:56:16.171Z,5.10
2023-04-03T20:58:46.715Z,4.30
2023-04-03T21:01:18.752Z,7.35
2023-04-03T21:03:47.683Z,4.93
2023-04-03T21:06:53.223Z,5.00
2023-04-03T21:09:58.515Z,4.25
2023-04-03T21:13:04.232Z,4.03
2023-04-03T21:15:52.094Z,4.15
2023-04-03T21:18:42.122Z,4.97
2023-04-03T21:21:19.696Z,4.15
2023-04-03T21:23:48.983Z,4.72
2023-04-03T21:26:18.053Z,4.28
2023-04-03T21:28:46.407Z,4.50
2023-04-03T21:31:15.324Z,4.28
2023-04-03T21:33:45.208Z,4.72
2023-04-03T21:36:13.342Z,4.68
2023-04-03T21:38:41.318Z,5.00
2023-04-03T21:41:09.249Z,4.70
2023-04-03T21:43:37.276Z,5.07
2023-04-03T21:46:05.708Z,5.32
2023-04-03T21:48:33.674Z,4.97
2023-04-03T21:51:06.959Z,4.32
2023-04-03T21:53:35.576Z,4.30
2023-04-03T21:56:04.038Z,4.30
2023-04-03T21:58:33.141Z,4.20
2023-04-03T22:01:10.317Z,3.90
2023-04-03T22:03:38.356Z,4.53
2023-04-03T22:06:11.630Z,4.40
2023-04-03T22:08:40.441Z,4.75
2023-04-03T22:11:10.028Z,4.40
2023-04-03T22:13:38.482Z,4.10
2023-04-03T22:16:07.314Z,4.00
2023-04-03T22:18:36.711Z,4.68
2023-04-03T22:21:04.609Z,4.15
2023-04-03T22:23:33.910Z,4.38
2023-04-03T22:26:03.802Z,4.40
2023-04-03T22:28:33.589Z,4.70
2023-04-03T22:31:07.446Z,4.25
2023-04-03T22:33:37.199Z,4.43
2023-04-03T22:36:06.299Z,6.03
2023-04-03T22:38:36.825Z,4.63
2023-04-03T22:41:07.434Z,4.33
2023-04-03T22:43:37.603Z,4.30
2023-04-03T22:46:07.305Z,3.88
2023-04-03T22:48:35.541Z,4.23
2023-04-03T22:51:07.588Z,4.40
2023-04-03T22:53:37.330Z,3.83
2023-04-03T22:56:10.335Z,3.57
2023-04-03T22:58:39.155Z,3.67
2023-04-03T23:01:09.009Z,3.80
2023-04-03T23:03:37.986Z,3.33
2023-04-03T23:06:07.040Z,3.45
2023-04-03T23:08:35.912Z,3.40
2023-04-03T23:11:07.235Z,3.50
2023-04-03T23:13:35.381Z,3.80
2023-04-03T23:16:04.824Z,3.90
2023-04-03T23:18:35.174Z,3.77
2023-04-03T23:21:04.648Z,3.63
2023-04-03T23:23:33.217Z,3.30
2023-04-03T23:26:02.712Z,3.73
2023-04-03T23:28:32.076Z,3.50
2023-04-03T23:31:01.972Z,3.73
2023-04-03T23:33:31.091Z,3.63
2023-04-03T23:35:59.467Z,3.77
2023-04-03T23:38:27.905Z,3.87
2023-04-03T23:40:55.895Z,3.27
2023-04-03T23:43:23.999Z,3.73
2023-04-03T23:45:53.776Z,3.40
2023-04-03T23:48:21.952Z,3.63
2023-04-03T23:50:50.178Z,3.50
2023-04-03T23:53:18.529Z,4.10
2023-04-03T23:55:47.649Z,3.83
2023-04-03T23:58:15.932Z,4.20
